^^
Station Historical Data
Daily Summary for January 2, 2017 Units:  English    Metric   Both
« Previous Day
Next Day »
Daily Weekly Monthly Yearly Custom
  High: Low: Average:
Temperature: 38.3 °F 30.6 °F 35.2 °F
Dew Point: 35.8 °F 20.9 °F 30.7 °F
Humidity: 95% 64% 84%
Wind Speed: 2.0mph 0.0mph 0.2mph
Wind Gust: 8.0mph - -
Wind- - East
Pressure: 30.54 in 30.30 in -
Precipitation: 0.11 in    
Historical Graphs
 
 
Tabular Data for January 2, 2017
Time Temperature Dew Point Pressure Wind Wind Speed Wind Gust Humidity Rainfall Rate (Hourly) Conditions
00:00 31.7 °F 20.9 °F 30.46 in Calm   1.0 mph 64% 0.00 in CLR
00:10 31.0 °F 21.3 °F 30.47 in Calm     67% 0.00 in CLR
00:20 31.3 °F 21.6 °F 30.46 in NNE 1.0 mph 3.0 mph 67% 0.00 in CLR
00:30 30.8 °F 21.8 °F 30.45 in Calm   2.0 mph 69% 0.00 in CLR
00:40 30.6 °F 22.0 °F 30.45 in Calm   1.0 mph 70% 0.00 in CLR
00:50 31.7 °F 23.3 °F 30.45 in Calm   1.0 mph 71% 0.00 in CLR
00:59 32.0 °F 24.0 °F 30.44 in Calm   2.0 mph 72% 0.00 in CLR
01:10 32.8 °F 24.4 °F 30.44 in Calm   2.0 mph 71% 0.00 in CLR
01:20 32.6 °F 24.6 °F 30.45 in Calm   1.0 mph 72% 0.00 in CLR
01:30 32.6 °F 24.6 °F 30.45 in Calm   1.0 mph 72% 0.00 in CLR
01:40 32.5 °F 24.5 °F 30.46 in Calm   1.0 mph 72% 0.00 in CLR
01:50 31.8 °F 24.4 °F 30.47 in Calm     74% 0.00 in CLR
02:00 31.2 °F 24.2 °F 30.47 in Calm     75% 0.00 in CLR
02:10 31.4 °F 24.1 °F 30.47 in Calm     74% 0.00 in CLR
02:20 31.1 °F 24.1 °F 30.48 in Calm     75% 0.00 in CLR
02:30 30.6 °F 23.9 °F 30.48 in Calm     76% 0.00 in CLR
02:40 31.3 °F 25.2 °F 30.48 in Calm   1.0 mph 78% 0.00 in CLR
02:50 32.0 °F 25.3 °F 30.47 in Calm   2.0 mph 76% 0.00 in CLR
03:00 32.3 °F 25.6 °F 30.47 in North 1.0 mph 2.0 mph 76% 0.00 in CLR
03:10 32.9 °F 25.2 °F 30.47 in Calm   2.0 mph 73% 0.00 in CLR
03:20 32.9 °F 24.9 °F 30.47 in Calm   1.0 mph 72% 0.00 in CLR
03:30 32.8 °F 24.7 °F 30.47 in Calm   2.0 mph 72% 0.00 in CLR
03:40 32.4 °F 24.7 °F 30.47 in Calm   1.0 mph 73% 0.00 in CLR
03:50 32.3 °F 24.6 °F 30.47 in Calm   3.0 mph 73% 0.00 in CLR
04:00 32.2 °F 24.2 °F 30.48 in Calm   1.0 mph 72% 0.00 in CLR
04:10 31.4 °F 24.1 °F 30.48 in Calm     74% 0.00 in CLR
04:20 31.7 °F 24.3 °F 30.49 in Calm   1.0 mph 74% 0.00 in CLR
04:30 31.6 °F 24.3 °F 30.50 in Calm     74% 0.00 in CLR
04:40 31.5 °F 23.9 °F 30.50 in Calm   1.0 mph 73% 0.00 in CLR
04:50 31.4 °F 24.1 °F 30.49 in Calm     74% 0.00 in CLR
05:00 31.3 °F 24.3 °F 30.49 in Calm     75% 0.00 in CLR
05:10 31.2 °F 24.8 °F 30.49 in Calm     77% 0.00 in CLR
05:20 31.7 °F 25.0 °F 30.50 in Calm   1.0 mph 76% 0.00 in CLR
05:30 31.6 °F 24.9 °F 30.50 in Calm   1.0 mph 76% 0.00 in CLR
05:40 31.3 °F 24.3 °F 30.50 in Calm   1.0 mph 75% 0.00 in CLR
05:50 30.8 °F 24.4 °F 30.50 in Calm     77% 0.00 in CLR
06:00 30.6 °F 24.6 °F 30.51 in Calm     78% 0.00 in CLR
06:10 30.6 °F 24.9 °F 30.51 in Calm     79% 0.00 in CLR
06:20 30.7 °F 25.2 °F 30.51 in Calm     80% 0.00 in CLR
06:30 31.8 °F 26.6 °F 30.51 in Calm   1.0 mph 81% 0.00 in CLR
06:40 32.2 °F 27.0 °F 30.50 in Calm   2.0 mph 81% 0.00 in CLR
06:50 32.5 °F 27.3 °F 30.50 in Calm   2.0 mph 81% 0.00 in CLR
07:00 32.9 °F 27.7 °F 30.51 in Calm   1.0 mph 81% 0.00 in CLR
07:10 33.2 °F 28.0 °F 30.50 in Calm   1.0 mph 81% 0.00 in CLR
07:20 33.1 °F 27.9 °F 30.49 in Calm   1.0 mph 81% 0.00 in CLR
07:30 33.2 °F 28.0 °F 30.50 in Calm   1.0 mph 81% 0.00 in CLR
07:40 33.4 °F 28.2 °F 30.51 in Calm   1.0 mph 81% 0.00 in CLR
07:50 33.6 °F 28.1 °F 30.51 in Calm     80% 0.00 in CLR
08:00 33.8 °F 28.2 °F 30.51 in Calm     80% 0.00 in CLR
08:10 33.9 °F 28.7 °F 30.50 in Calm   1.0 mph 81% 0.00 in CLR
08:20 34.4 °F 28.9 °F 30.51 in Calm   3.0 mph 80% 0.00 in CLR
08:30 34.9 °F 29.0 °F 30.52 in Calm   1.0 mph 79% 0.00 in CLR
08:40 35.2 °F 29.0 °F 30.52 in Calm   2.0 mph 78% 0.00 in CLR
08:50 35.4 °F 29.6 °F 30.52 in Calm   2.0 mph 79% 0.00 in CLR
09:00 35.7 °F 29.5 °F 30.53 in Calm   1.0 mph 78% 0.00 in CLR
09:10 36.1 °F 29.6 °F 30.53 in Calm   2.0 mph 77% 0.00 in -RA
09:20 36.4 °F 29.6 °F 30.54 in Calm   1.0 mph 76% 0.00 in -RA
09:30 36.7 °F 29.9 °F 30.54 in Calm   2.0 mph 76% 0.00 in -RA
09:40 37.1 °F 30.2 °F 30.54 in Calm   3.0 mph 76% 0.00 in -RA
09:50 37.4 °F 30.2 °F 30.54 in Calm   1.0 mph 75% 0.00 in -RA
10:00 37.6 °F 30.7 °F 30.54 in Calm   1.0 mph 76% 0.00 in -RA
10:10 37.9 °F 31.0 °F 30.54 in Calm   4.0 mph 76% 0.00 in BKN
10:20 38.0 °F 31.1 °F 30.54 in Calm   2.0 mph 76% 0.00 in BKN
10:30 38.0 °F 31.4 °F 30.53 in Calm   3.0 mph 77% 0.00 in BKN
10:40 38.2 °F 31.6 °F 30.52 in NE 1.0 mph 5.0 mph 77% 0.00 in BKN
10:50 38.3 °F 32.0 °F 30.51 in NE 1.0 mph 8.0 mph 78% 0.00 in BKN
11:00 38.1 °F 32.1 °F 30.51 in ENE 1.0 mph 4.0 mph 79% 0.00 in BKN
11:10 37.9 °F 32.3 °F 30.51 in NNE 1.0 mph 5.0 mph 80% 0.00 in -RA
11:20 37.9 °F 32.2 °F 30.50 in Calm   4.0 mph 80% 0.00 in -RA
11:30 37.8 °F 32.5 °F 30.50 in NE 1.0 mph 3.0 mph 81% 0.00 in -RA
11:40 37.7 °F 32.4 °F 30.49 in NE 2.0 mph 5.0 mph 81% 0.00 in -RA
11:50 37.7 °F 32.7 °F 30.48 in NNE 2.0 mph 7.0 mph 82% 0.00 in -RA
12:00 37.6 °F 32.9 °F 30.48 in NNE 1.0 mph 5.0 mph 83% 0.00 in -RA
12:10 37.5 °F 33.1 °F 30.47 in Calm   4.0 mph 84% 0.01 in -RA
12:20 37.6 °F 33.2 °F 30.46 in Calm   5.0 mph 84% 0.00 in -RA
12:30 37.6 °F 33.2 °F 30.46 in ENE 1.0 mph 6.0 mph 84% 0.00 in -RA
12:40 37.7 °F 33.3 °F 30.46 in Calm   4.0 mph 84% 0.00 in -RA
12:50 37.7 °F 33.3 °F 30.45 in NE 1.0 mph 4.0 mph 84% 0.00 in -RA
13:00 37.7 °F 33.3 °F 30.46 in Calm   5.0 mph 84% 0.00 in -RA
13:10 37.6 °F 33.5 °F 30.46 in Calm   3.0 mph 85% 0.01 in -RA
13:20 37.6 °F 33.7 °F 30.45 in Calm   1.0 mph 86% 0.00 in -RA
13:30 37.5 °F 34.0 °F 30.46 in Calm   1.0 mph 87% 0.01 in -RA
13:40 37.5 °F 34.0 °F 30.44 in ENE 1.0 mph 3.0 mph 87% 0.00 in -RA
13:50 37.3 °F 34.1 °F 30.44 in Calm   2.0 mph 88% 0.00 in -RA
14:00 37.2 °F 34.0 °F 30.44 in Calm   1.0 mph 88% 0.00 in -RA
14:10 37.1 °F 33.9 °F 30.44 in Calm   4.0 mph 88% 0.01 in -RA
14:20 37.1 °F 34.2 °F 30.44 in Calm   5.0 mph 89% 0.00 in -RA
14:30 37.2 °F 34.3 °F 30.44 in Calm   2.0 mph 89% 0.00 in -RA
14:40 37.2 °F 34.2 °F 30.44 in Calm   1.0 mph 89% 0.01 in -RA
14:50 37.1 °F 34.4 °F 30.44 in NNE 1.0 mph 4.0 mph 90% 0.00 in -RA
15:00 37.0 °F 34.1 °F 30.44 in Calm   3.0 mph 89% 0.00 in -RA
15:10 36.9 °F 34.2 °F 30.44 in Calm   2.0 mph 90% 0.00 in -RA
15:20 36.8 °F 34.2 °F 30.44 in Calm   1.0 mph 90% 0.00 in -RA
15:30 36.8 °F 34.1 °F 30.43 in Calm   3.0 mph 90% 0.00 in -RA
15:40 36.7 °F 34.0 °F 30.43 in Calm   3.0 mph 90% 0.00 in -RA
15:50 36.7 °F 34.0 °F 30.43 in Calm   2.0 mph 90% 0.00 in -RA
16:00 36.6 °F 34.0 °F 30.44 in Calm   3.0 mph 90% 0.00 in -RA
16:10 36.6 °F 34.0 °F 30.43 in North 1.0 mph 4.0 mph 90% 0.01 in -RA
16:20 36.5 °F 34.1 °F 30.42 in Calm   4.0 mph 91% 0.00 in -RA
16:30 36.5 °F 34.1 °F 30.43 in Calm   2.0 mph 91% 0.00 in -RA
16:40 36.5 °F 34.1 °F 30.42 in Calm   1.0 mph 91% 0.00 in -RA
16:50 36.4 °F 34.3 °F 30.42 in Calm   2.0 mph 92% 0.00 in -RA
17:00 36.4 °F 34.3 °F 30.42 in Calm   1.0 mph 92% 0.00 in -RA
17:10 36.3 °F 34.2 °F 30.42 in Calm   2.0 mph 92% 0.00 in -RA
17:20 36.4 °F 34.6 °F 30.42 in Calm   1.0 mph 93% 0.01 in -RA
17:30 36.3 °F 34.5 °F 30.41 in Calm   1.0 mph 93% 0.00 in -RA
17:40 36.4 °F 34.6 °F 30.42 in Calm   1.0 mph 93% 0.00 in -RA
17:50 36.4 °F 34.6 °F 30.41 in Calm   1.0 mph 93% 0.00 in -RA
18:00 36.5 °F 34.7 °F 30.41 in Calm   1.0 mph 93% 0.00 in -RA
18:10 36.5 °F 34.9 °F 30.41 in Calm   1.0 mph 94% 0.01 in -RA
18:20 36.5 °F 35.0 °F 30.41 in Calm   1.0 mph 94% 0.00 in -RA
18:30 36.6 °F 35.0 °F 30.41 in Calm   2.0 mph 94% 0.00 in -RA
18:40 36.7 °F 35.1 °F 30.41 in Calm   2.0 mph 94% 0.00 in -RA
18:50 36.7 °F 35.1 °F 30.41 in NNW 1.0 mph 5.0 mph 94% 0.00 in -RA
19:00 36.7 °F 35.1 °F 30.40 in Calm   3.0 mph 94% 0.00 in -RA
19:10 36.8 °F 35.2 °F 30.40 in Calm   3.0 mph 94% 0.01 in -RA
19:20 36.8 °F 35.2 °F 30.40 in Calm   2.0 mph 94% 0.00 in -RA
19:30 36.7 °F 35.4 °F 30.40 in NW 1.0 mph 4.0 mph 95% 0.00 in -RA
19:40 36.8 °F 35.5 °F 30.40 in Calm   1.0 mph 95% 0.01 in -RA
19:50 36.8 °F 35.5 °F 30.39 in Calm   4.0 mph 95% 0.00 in -RA
20:00 36.7 °F 35.4 °F 30.39 in Calm   3.0 mph 95% 0.00 in -RA
20:10 36.7 °F 35.4 °F 30.38 in Calm   1.0 mph 95% 0.00 in -RA
20:20 36.7 °F 35.4 °F 30.37 in Calm   3.0 mph 95% 0.00 in -RA
20:30 36.6 °F 35.3 °F 30.36 in Calm   2.0 mph 95% 0.00 in -RA
20:40 36.6 °F 35.3 °F 30.36 in Calm   1.0 mph 95% 0.00 in -RA
20:50 36.6 °F 35.3 °F 30.35 in Calm   2.0 mph 95% 0.00 in -RA
21:00 36.7 °F 35.4 °F 30.35 in NNE 1.0 mph 3.0 mph 95% 0.00 in -RA
21:10 36.7 °F 35.4 °F 30.34 in Calm   3.0 mph 95% 0.00 in -RA
21:20 36.7 °F 35.4 °F 30.33 in Calm   2.0 mph 95% 0.00 in -RA
21:30 36.7 °F 35.4 °F 30.33 in Calm   1.0 mph 95% 0.00 in -RA
21:40 36.8 °F 35.5 °F 30.33 in Calm   4.0 mph 95% 0.01 in -RA
21:50 36.9 °F 35.6 °F 30.33 in Calm   3.0 mph 95% 0.00 in -RA
22:00 36.9 °F 35.6 °F 30.33 in Calm   4.0 mph 95% 0.00 in -RA
22:10 37.0 °F 35.7 °F 30.33 in Calm   2.0 mph 95% 0.00 in -DZ
22:20 37.0 °F 35.7 °F 30.32 in Calm   2.0 mph 95% 0.00 in -DZ
22:30 37.0 °F 35.7 °F 30.32 in NNE 1.0 mph 3.0 mph 95% 0.00 in -DZ
22:40 37.1 °F 35.8 °F 30.33 in Calm   3.0 mph 95% 0.00 in -DZ
22:50 37.1 °F 35.8 °F 30.33 in Calm   3.0 mph 95% 0.00 in -DZ
23:00 37.0 °F 35.7 °F 30.33 in Calm   4.0 mph 95% 0.00 in -DZ
23:10 37.0 °F 35.7 °F 30.32 in ENE 1.0 mph 6.0 mph 95% 0.00 in -DZ
23:20 36.9 °F 35.6 °F 30.31 in Calm   3.0 mph 95% 0.00 in -DZ
23:30 36.8 °F 35.5 °F 30.30 in Calm   2.0 mph 95% 0.00 in -DZ
23:40 36.8 °F 35.5 °F 30.30 in Calm   2.0 mph 95% 0.00 in -DZ
23:50 36.8 °F 35.5 °F 30.30 in Calm   1.0 mph 95% 0.00 in -DZ
TarryTown NY Weather
Compliments of Weather Underground - 1.75 mb